EDLN/MGL METAR and TAF weather

Enter ICAO airport designator
Station Type Date Time Source
EDLN METAR 2019/06/16 07:20 UTC NOAA

EDLN 160720Z 24008KT 190V300 CAVOK 19/12 Q1019


Station Type Date Time Source
EDLN Decoded METAR 2019/06/16 07:20 UTC NOAA

Monchengladbach, Germany (EDLN) 51-13-49N 006-30-16E
Jun 16, 2019 - 03:20 AM EDT / 2019.06.16 0720 UTC
Wind: from the WSW (240 degrees) at 9 MPH (8 KT) (direction variable):0
Visibility: greater than 7 mile(s):0
Temperature: 66 F (19 C)
Dew Point: 53 F (12 C)
Relative Humidity: 63%
Pressure (altimeter): 30.09 in. Hg (1019 hPa)
ob: EDLN 160720Z 24008KT 190V300 CAVOK 19/12 Q1019
cycle: 7

Station Type Date Time Source
EDLN TAF 2010/02/22 14:20 UTC NOAA

METAR EDLN 221420Z 18010G20KT 090V240 9999 SCT030 BKN045 11/06 Q0986
RMK ATIS R=

Example: see airport list